Airfield :
LOGIN :

Register | Disclaimer

   EN    FR    IT 

 










Legend :    VFR   Marginal VFR   IFR   Intensive IFR   Very Intensive IFR
Visi :
Ceiling :
>= 8 km
>= 3000ft
5 to 8 km
1000 to 3000 ft
1500m to 5 km
500 to 1000 ft
800 to 1500m
200 to 500 ft
< 800m
< 200 ft
Symbols :   Thunderstorms  Fog  Heavy snow  Heavy precipitations  Wind > 20 kt
SIGMETs :     Misc.  Thunderstorms  Icing  Turbulence  Mountain Waves  Volcanic Ashes







- Airport Elevation : 1682 ft
- IATA code : VIT


LEVT - Vitoria Gasteiz

CURRENT METAR :
  • 201730Z 01013KT 9999 FEW030 23/15 Q1021

EXPIRED METARs :
  • 201700Z 35012KT 330V040 9999 FEW030 24/16 Q1021
  • 201630Z 01013KT 330V050 9999 FEW035 24/15 Q1021
  • 201600Z 36012KT 330V030 9999 FEW035 25/16 Q1021
  • 201530Z 36011KT 330V070 9999 FEW035 26/16 Q1021
  • 201500Z 01012KT 330V050 9999 FEW035 26/15 Q1021

TAF TAF LEVT
Valid from the 20 at 18:00 until the 21 at 18:00 UTC


201700Z 2018/2118 03010KT CAVOK TX29/2114Z TN13/2106Z
BECMG 2018/2022 VRB03KT
BECMG 2109/2112 03010KT
No reported NOTAMs for that airfield.
1 SIGMET reported for the Madrid FIR (LECM) :
 
Embedded thunderstorms
LECM SIGMET 2 VALID 201630/201830 LEVA
LECM MADRID FIR/UIR EMBD TS OBS AT 1614Z W OF LINE N3716 W00416 - N3855 W00415 TOP FL400 MOV NE NC=



MET'MAP, your aeronautical weather chart ! - Copyright ORBIFLY December 2007 - Disclaimer

ORBIFLY MET'MAP TEAM :

Programming & Development : Alexandra Zaïnal
Concept & Development : Baudouin d'Aumeries
Co-Development & Prog : Marc-Olivier Méhu
Technical & hardware support : Manuel Goepfert

Contact : metmap@orbifly.com




SOURCES & CREDITS :

   NOAA